Time;durP1;ratioP1;P1;durP2;ratioP2;P2;SDS_P1;SDS_P2;PMS_P1;PMS_P2;Temp;Humidity;BMP_temperature;BMP_pressure;BME280_temperature;BME280_humidity;BME280_pressure;Samples;Min_cycle;Max_cycle;Signal;HPM_P1;HPM_P2
2022/05/05 00:01:57;;;;;;;5.10;2.00;;;;;;;3.18;54.70;99505.42;105404;1270;61107;-27
2022/05/05 00:04:25;;;;;;;6.30;2.00;;;;;;;3.17;55.21;99509.40;105239;1270;76093;-27
2022/05/05 00:06:54;;;;;;;9.90;2.20;;;;;;;3.14;54.93;99509.19;105408;1271;75971;-27
2022/05/05 00:09:23;;;;;;;2.50;1.60;;;;;;;3.15;54.61;99514.15;105108;1272;74181;-27
2022/05/05 00:14:40;;;;;;;4.50;1.90;;;;;;;3.12;54.99;99516.45;105156;1271;61132;-27
2022/05/05 00:17:09;;;;;;;3.20;1.30;;;;;;;3.08;54.94;99519.55;105099;1271;75642;-27
2022/05/05 00:19:41;;;;;;;3.20;1.30;;;;;;;3.08;55.00;99519.77;105010;1271;74994;-27
2022/05/05 00:22:10;;;;;;;4.00;1.60;;;;;;;3.06;55.18;99523.60;104828;1271;74343;-27
2022/05/05 00:24:38;;;;;;;5.90;1.60;;;;;;;3.05;54.83;99523.16;105121;1271;61222;-27
2022/05/05 00:27:07;;;;;;;4.70;1.80;;;;;;;3.05;55.01;99527.25;105065;1271;62271;-27
2022/05/05 00:29:35;;;;;;;3.60;1.60;;;;;;;3.07;55.38;99528.72;105104;1271;75663;-27
2022/05/05 00:32:04;;;;;;;8.40;1.60;;;;;;;3.05;54.80;99532.59;105115;1271;75808;-27
2022/05/05 00:34:34;;;;;;;2.40;1.30;;;;;;;3.03;54.89;99533.88;105120;1271;74409;-27
2022/05/05 00:37:04;;;;;;;4.90;1.90;;;;;;;2.99;55.29;99532.65;104995;1271;61455;-27
2022/05/05 00:39:32;;;;;;;5.20;2.10;;;;;;;2.97;55.40;99537.21;105178;1271;61004;-27
2022/05/05 00:42:02;;;;;;;7.10;2.10;;;;;;;2.95;55.44;99543.80;105053;1271;75380;-27
2022/05/05 00:44:30;;;;;;;5.30;1.80;;;;;;;2.94;55.62;99544.86;104953;1271;75778;-27
2022/05/05 00:46:59;;;;;;;3.40;1.70;;;;;;;2.93;55.42;99549.19;105193;1271;74195;-26
2022/05/05 00:49:29;;;;;;;3.80;1.50;;;;;;;2.91;55.64;99550.66;105401;1271;61625;-26
2022/05/05 00:51:59;;;;;;;2.60;1.60;;;;;;;2.88;55.72;99550.10;105401;1271;61084;-26
2022/05/05 00:54:28;;;;;;;2.70;1.10;;;;;;;2.86;55.66;99549.84;105146;1271;75501;-27
2022/05/05 00:56:57;;;;;;;4.40;1.40;;;;;;;2.82;55.67;99551.88;105404;1271;76058;-26
2022/05/05 00:59:25;;;;;;;6.20;1.60;;;;;;;2.77;55.75;99552.42;105378;1271;74213;-26
2022/05/05 01:01:54;;;;;;;2.50;1.40;;;;;;;2.73;56.06;99552.09;105390;1271;61143;-26
2022/05/05 01:04:23;;;;;;;2.80;1.20;;;;;;;2.67;55.99;99553.48;105405;1271;61104;-26
2022/05/05 01:06:52;;;;;;;4.20;1.50;;;;;;;2.64;55.73;99556.59;105177;1271;74387;-27
2022/05/05 01:09:22;;;;;;;4.50;1.40;;;;;;;2.58;55.80;99555.79;105370;1271;76625;-26
2022/05/05 01:11:51;;;;;;;2.30;1.30;;;;;;;2.51;55.98;99560.99;105173;1271;74298;-27
2022/05/05 01:14:19;;;;;;;3.00;1.20;;;;;;;2.45;56.46;99566.70;105148;1271;61149;-27
2022/05/05 01:16:48;;;;;;;3.40;1.70;;;;;;;2.41;56.40;99568.58;105141;1271;61106;-26
2022/05/05 01:19:17;;;;;;;3.60;1.50;;;;;;;2.35;56.81;99570.20;105306;1271;75412;-26
2022/05/05 01:21:55;;;;;;;3.70;1.70;;;;;;;2.28;56.56;99572.03;105176;1271;75896;-26
2022/05/05 01:30:04;;;;;;;4.10;2.30;;;;;;;1.95;57.90;99574.80;104919;1271;61185;-26
2022/05/05 01:32:32;;;;;;;4.70;1.70;;;;;;;1.84;58.91;99578.62;105091;1271;75295;-27
2022/05/05 01:35:01;;;;;;;4.40;1.80;;;;;;;1.78;60.20;99579.70;105142;1271;74888;-27
2022/05/05 01:37:29;;;;;;;3.10;1.70;;;;;;;1.77;60.55;99584.20;105169;1271;73310;-26
2022/05/05 01:39:58;;;;;;;3.60;1.70;;;;;;;1.75;60.79;99582.24;105259;1271;61310;-27
2022/05/05 01:42:26;;;;;;;4.30;1.90;;;;;;;1.73;61.05;99585.55;105285;1271;61028;-27
2022/05/05 01:44:55;;;;;;;4.60;1.70;;;;;;;1.67;61.61;99583.18;105192;1271;75386;-27
2022/05/05 01:47:23;;;;;;;5.70;1.80;;;;;;;1.64;61.82;99584.65;105197;1270;76138;-26
2022/05/05 01:49:54;;;;;;;3.90;1.50;;;;;;;1.62;61.56;99585.77;105232;1271;74376;-26
2022/05/05 01:52:23;;;;;;;5.60;2.80;;;;;;;1.60;61.79;99585.16;104971;1271;61421;-26
2022/05/05 01:54:52;;;;;;;9.60;2.70;;;;;;;1.56;61.86;99589.89;104858;1271;61954;-29
2022/05/05 01:57:20;;;;;;;6.80;2.90;;;;;;;1.51;62.09;99587.19;105238;1271;75517;-27
2022/05/05 01:59:48;;;;;;;6.50;2.60;;;;;;;1.43;62.47;99585.73;105296;1271;76571;-28
2022/05/05 02:02:18;;;;;;;6.20;2.50;;;;;;;1.38;62.06;99586.95;105033;1271;72445;-28
2022/05/05 02:04:47;;;;;;;6.60;4.10;;;;;;;1.37;62.31;99588.52;105004;1270;61243;-28
2022/05/05 02:07:15;;;;;;;11.50;2.80;;;;;;;1.31;63.15;99591.29;105100;1272;61992;-29
2022/05/05 02:09:44;;;;;;;4.30;2.00;;;;;;;1.27;63.98;99594.16;104806;1272;75546;-28
2022/05/05 02:12:12;;;;;;;4.00;2.20;;;;;;;1.14;63.88;99597.50;104951;1271;75098;-28
2022/05/05 02:14:40;;;;;;;5.10;2.90;;;;;;;1.09;64.37;99596.47;105064;1271;74522;-28
2022/05/05 02:17:09;;;;;;;6.40;1.40;;;;;;;1.15;64.46;99595.58;105361;1269;62911;-28
2022/05/05 02:19:39;;;;;;;6.70;2.00;;;;;;;1.91;63.29;99594.63;105191;1271;61071;-28
2022/05/05 02:22:08;;;;;;;3.60;1.80;;;;;;;2.63;60.60;99600.80;104935;1271;75030;-27
2022/05/05 02:24:36;;;;;;;10.10;2.70;;;;;;;2.76;59.71;99598.59;105208;1271;76014;-28
2022/05/05 02:27:05;;;;;;;3.00;1.90;;;;;;;2.59;59.65;99606.64;105159;1271;74218;-27
2022/05/05 02:29:35;;;;;;;11.00;2.10;;;;;;;2.37;60.09;99609.73;105361;1271;61163;-28
2022/05/05 02:32:04;;;;;;;3.70;1.70;;;;;;;2.16;61.47;99608.97;105400;1271;61027;-28
2022/05/05 02:34:32;;;;;;;5.90;1.80;;;;;;;1.93;62.31;99613.21;105142;1271;75644;-28
2022/05/05 02:39:49;;;;;;;2.70;1.60;;;;;;;1.51;63.31;99612.52;105388;1271;74330;-28
2022/05/05 02:42:18;;;;;;;4.90;2.20;;;;;;;1.41;62.89;99611.83;105134;1271;61094;-28
2022/05/05 02:44:47;;;;;;;8.70;3.20;;;;;;;1.27;64.38;99615.02;105067;1271;61140;-27
2022/05/05 02:47:15;;;;;;;11.20;3.70;;;;;;;1.18;64.83;99618.41;105089;1271;75562;-27
2022/05/05 02:49:44;;;;;;;16.70;7.10;;;;;;;1.07;65.14;99618.77;104967;1271;76081;-26
2022/05/05 02:52:13;;;;;;;23.20;8.70;;;;;;;0.92;65.75;99622.49;104986;1271;74451;-27
2022/05/05 02:54:47;;;;;;;52.80;21.20;;;;;;;0.86;65.79;99621.33;104994;1269;61472;-27
2022/05/05 02:57:17;;;;;;;54.30;22.60;;;;;;;0.83;66.03;99625.55;105288;1271;61348;-28
2022/05/05 02:59:50;;;;;;;78.70;29.70;;;;;;;0.78;66.12;99629.30;105141;1271;75500;-27
2022/05/05 03:02:19;;;;;;;85.80;34.70;;;;;;;0.79;67.09;99630.45;104938;1271;76017;-27
2022/05/05 03:04:48;;;;;;;52.70;20.80;;;;;;;0.98;66.58;99630.02;104934;1271;74599;-27
2022/05/05 03:07:16;;;;;;;76.10;29.60;;;;;;;1.76;63.58;99631.46;105010;1269;61053;-27
2022/05/05 03:09:45;;;;;;;26.50;13.90;;;;;;;2.76;60.46;99639.05;105044;1271;61229;-28
2022/05/05 03:12:13;;;;;;;19.80;10.70;;;;;;;3.17;59.56;99641.52;105257;1271;74292;-27
2022/05/05 03:14:43;;;;;;;14.70;7.90;;;;;;;3.27;58.45;99641.65;105162;1271;76083;-27
2022/05/05 03:17:11;;;;;;;13.70;6.50;;;;;;;3.32;58.20;99639.55;105221;1271;74351;-27
2022/05/05 03:19:41;;;;;;;10.70;5.60;;;;;;;3.57;57.29;99640.19;105366;1271;61181;-26
2022/05/05 03:22:09;;;;;;;7.90;3.80;;;;;;;3.81;56.47;99639.34;105228;1271;61196;-25
2022/05/05 03:24:39;;;;;;;6.60;3.30;;;;;;;4.04;55.32;99639.72;105391;1270;75702;-26
2022/05/05 03:27:08;;;;;;;7.20;3.10;;;;;;;4.20;54.46;99645.88;104841;1271;76631;-26
2022/05/05 03:29:36;;;;;;;12.10;3.70;;;;;;;4.20;53.85;99654.31;105082;1271;74662;-26
2022/05/05 03:32:05;;;;;;;8.80;4.10;;;;;;;4.11;54.72;99661.21;105116;1271;61016;-26
2022/05/05 03:34:34;;;;;;;7.20;3.70;;;;;;;4.13;54.81;99657.69;105073;1271;61750;-26
2022/05/05 03:37:03;;;;;;;8.10;2.70;;;;;;;4.30;54.24;99656.39;104930;1270;75554;-26
2022/05/05 03:39:31;;;;;;;5.80;2.30;;;;;;;4.56;53.80;99659.84;104995;1271;75821;-27
2022/05/05 03:42:00;;;;;;;10.20;3.00;;;;;;;4.75;52.97;99664.65;105216;1271;74169;-27
2022/05/05 03:44:29;;;;;;;27.10;10.80;;;;;;;4.86;52.40;99665.02;105275;1271;61218;-28
2022/05/05 03:46:57;;;;;;;22.70;8.90;;;;;;;4.83;52.43;99659.83;105303;1271;62058;-29
2022/05/05 03:49:26;;;;;;;9.00;4.00;;;;;;;5.14;52.19;99655.91;105160;1270;75537;-28
2022/05/05 03:51:57;;;;;;;12.80;4.70;;;;;;;5.35;51.72;99658.84;105305;1271;76190;-28
2022/05/05 03:54:26;;;;;;;23.30;12.00;;;;;;;5.47;51.21;99661.54;105268;1271;74103;-28
2022/05/05 03:56:54;;;;;;;18.80;7.80;;;;;;;5.42;50.85;99663.16;105311;1271;61149;-28
2022/05/05 03:59:23;;;;;;;16.60;8.90;;;;;;;5.63;51.07;99663.50;105372;1271;61033;-29
2022/05/05 04:01:52;;;;;;;12.50;6.60;;;;;;;5.81;50.08;99662.17;105413;1271;75850;-28
2022/05/05 04:04:20;;;;;;;12.10;6.60;;;;;;;6.01;49.73;99663.45;105286;1271;76067;-29
2022/05/05 04:06:49;;;;;;;14.70;5.80;;;;;;;6.25;49.77;99664.08;104959;1271;74080;-27
2022/05/05 04:09:18;;;;;;;13.30;5.40;;;;;;;6.17;48.09;99665.39;104911;1271;61169;-28
2022/05/05 04:11:46;;;;;;;7.00;4.20;;;;;;;6.30;48.07;99663.30;105250;1271;61174;-26
2022/05/05 04:14:17;;;;;;;6.70;3.90;;;;;;;6.52;48.18;99664.21;105355;1270;75995;-26
2022/05/05 04:16:46;;;;;;;7.00;3.20;;;;;;;6.72;47.68;99666.71;105215;1271;75992;-26
2022/05/05 04:19:14;;;;;;;7.30;2.70;;;;;;;6.86;46.47;99672.87;105389;1271;74324;-26
2022/05/05 04:21:43;;;;;;;3.10;2.20;;;;;;;6.77;46.16;99675.96;105378;1271;61552;-26
2022/05/05 04:24:11;;;;;;;5.40;2.60;;;;;;;6.79;46.49;99681.69;105194;1271;61124;-27
2022/05/05 04:26:41;;;;;;;5.70;2.10;;;;;;;6.92;46.58;99682.88;104968;1271;75517;-26
2022/05/05 04:29:10;;;;;;;4.20;2.10;;;;;;;7.17;45.85;99680.41;105315;1269;76393;-26
2022/05/05 04:31:38;;;;;;;1.50;1.30;;;;;;;7.25;45.17;99678.94;105145;1271;74450;-26
2022/05/05 04:34:06;;;;;;;3.20;1.80;;;;;;;7.24;44.82;99682.32;105262;1272;61287;-26
2022/05/05 04:36:36;;;;;;;5.30;1.90;;;;;;;7.21;45.06;99681.25;105012;1271;61047;-26
2022/05/05 04:39:05;;;;;;;2.70;1.70;;;;;;;7.46;45.62;99681.70;105416;1271;74481;-26
2022/05/05 04:41:33;;;;;;;3.80;2.00;;;;;;;7.72;45.70;99683.46;105425;1270;76050;-26
2022/05/05 04:44:02;;;;;;;4.50;1.80;;;;;;;7.83;44.09;99683.54;105409;1271;74244;-26
2022/05/05 04:46:31;;;;;;;2.50;1.30;;;;;;;7.74;43.78;99682.15;105097;1271;61127;-26
2022/05/05 04:49:00;;;;;;;3.20;1.90;;;;;;;7.41;44.37;99688.25;105178;1270;61158;-26
2022/05/05 04:51:28;;;;;;;4.60;1.80;;;;;;;7.51;44.18;99684.70;105026;1271;75837;-26
2022/05/05 04:53:57;;;;;;;2.60;1.40;;;;;;;7.54;44.34;99687.66;105114;1271;75962;-27
2022/05/05 04:56:25;;;;;;;1.90;1.20;;;;;;;7.64;44.06;99686.58;105249;1272;74452;-27
2022/05/05 04:58:53;;;;;;;4.50;1.80;;;;;;;7.78;43.91;99692.32;105116;1271;61026;-26
2022/05/05 05:01:22;;;;;;;6.70;1.50;;;;;;;7.82;43.39;99693.80;105434;1271;62060;-26
2022/05/05 05:03:51;;;;;;;3.30;1.50;;;;;;;7.79;44.14;99691.90;105398;1271;75634;-26
2022/05/05 05:06:20;;;;;;;1.90;1.00;;;;;;;7.87;43.52;99694.03;105167;1271;75977;-26
2022/05/05 05:08:50;;;;;;;1.90;1.30;;;;;;;7.89;43.49;99699.09;105406;1271;73378;-26
2022/05/05 05:11:18;;;;;;;3.30;1.50;;;;;;;7.89;43.64;99701.67;105085;1271;61211;-26
2022/05/05 05:13:47;;;;;;;5.30;1.90;;;;;;;7.98;43.86;99706.15;105189;1271;61125;-26
2022/05/05 05:16:15;;;;;;;3.80;1.70;;;;;;;8.07;43.39;99702.81;105045;1271;75326;-26
2022/05/05 05:19:05;;;;;;;3.20;1.70;;;;;;;8.18;43.19;99702.36;104906;1271;75978;-26
2022/05/05 05:21:35;;;;;;;3.30;1.40;;;;;;;8.43;42.82;99705.87;104933;1271;74463;-26
2022/05/05 05:24:04;;;;;;;8.80;1.60;;;;;;;8.51;42.58;99709.34;104964;1271;61026;-26
2022/05/05 05:26:32;;;;;;;7.10;1.80;;;;;;;8.82;42.13;99711.09;104965;1271;61127;-26
2022/05/05 05:29:01;;;;;;;4.10;1.80;;;;;;;8.95;41.71;99709.91;104943;1271;75496;-26
2022/05/05 05:31:30;;;;;;;4.20;1.50;;;;;;;9.01;40.89;99706.56;104908;1271;76301;-26
2022/05/05 05:33:59;;;;;;;4.90;1.60;;;;;;;9.27;41.29;99701.47;104893;1271;72342;-26
2022/05/05 05:36:28;;;;;;;2.60;1.20;;;;;;;9.26;40.14;99702.52;104959;1271;61142;-26
2022/05/05 05:38:57;;;;;;;5.20;1.00;;;;;;;9.39;38.74;99699.98;105102;1271;61012;-26
2022/05/05 05:41:25;;;;;;;3.40;1.00;;;;;;;9.42;39.11;99700.98;105146;1271;75273;-26
2022/05/05 05:43:54;;;;;;;3.00;1.00;;;;;;;9.48;39.02;99700.95;105142;1270;75794;-26
2022/05/05 05:46:22;;;;;;;2.50;1.10;;;;;;;9.66;39.20;99700.67;105170;1271;74217;-26
2022/05/05 05:48:52;;;;;;;8.00;1.70;;;;;;;9.71;37.76;99701.31;105009;1271;61111;-26
2022/05/05 05:51:21;;;;;;;1.90;1.20;;;;;;;9.78;38.00;99695.46;104988;1271;62078;-26
2022/05/05 05:53:50;;;;;;;1.90;1.00;;;;;;;9.95;37.60;99699.32;105131;1271;75672;-26
2022/05/05 05:56:18;;;;;;;1.80;0.90;;;;;;;10.06;38.14;99701.52;105170;1271;76089;-24
2022/05/05 05:58:46;;;;;;;0.50;0.50;;;;;;;10.28;37.44;99700.25;105142;1271;74285;-25
2022/05/05 06:01:15;;;;;;;3.60;1.30;;;;;;;10.29;36.31;99698.45;105134;1271;62587;-25
2022/05/05 06:03:53;;;;;;;2.20;1.10;;;;;;;10.42;35.43;99699.45;105151;1271;61110;-25
2022/05/05 06:06:22;;;;;;;2.40;0.90;;;;;;;10.45;35.34;99699.11;105152;1271;75715;-25
2022/05/05 06:08:50;;;;;;;3.40;1.00;;;;;;;10.64;34.42;99702.08;105183;1271;75962;-25
2022/05/05 06:11:23;;;;;;;1.40;1.00;;;;;;;10.73;34.20;99695.38;104988;1271;74156;-25
2022/05/05 06:13:52;;;;;;;2.30;0.90;;;;;;;10.37;34.04;99693.75;104938;1271;62126;-25
2022/05/05 06:16:20;;;;;;;1.70;0.80;;;;;;;10.79;34.41;99701.55;105049;1271;61146;-26
2022/05/05 06:18:49;;;;;;;2.60;1.00;;;;;;;10.92;33.72;99700.13;105359;1268;75570;-25
2022/05/05 06:21:18;;;;;;;2.10;1.10;;;;;;;10.96;33.32;99703.98;105380;1271;75993;-25
2022/05/05 06:23:50;;;;;;;2.10;0.90;;;;;;;11.20;33.57;99709.39;105342;1269;74886;-26
2022/05/05 06:26:18;;;;;;;2.80;0.70;;;;;;;11.42;33.56;99711.05;105350;1271;61123;-27
2022/05/05 06:28:48;;;;;;;1.70;0.80;;;;;;;11.51;33.82;99710.02;105302;1271;62243;-27
2022/05/05 06:31:16;;;;;;;3.90;0.90;;;;;;;11.69;32.66;99713.21;105285;1269;74668;-27
2022/05/05 06:33:45;;;;;;;1.40;0.80;;;;;;;11.82;32.63;99711.41;105379;1270;76008;-27
2022/05/05 06:36:14;;;;;;;2.90;1.10;;;;;;;12.02;32.51;99710.04;105176;1271;74478;-27
2022/05/05 06:38:43;;;;;;;1.50;0.80;;;;;;;12.21;32.23;99711.41;105157;1271;61122;-26
2022/05/05 06:41:14;;;;;;;1.80;0.80;;;;;;;12.06;29.80;99706.48;105357;1271;62209;-26
2022/05/05 06:43:43;;;;;;;1.30;0.80;;;;;;;12.20;31.16;99709.77;105389;1271;75561;-26
2022/05/05 06:46:12;;;;;;;3.00;1.00;;;;;;;12.29;30.88;99708.55;105404;1271;75800;-26
2022/05/05 06:48:41;;;;;;;1.30;0.70;;;;;;;12.49;31.01;99712.55;105191;1271;74412;-26
2022/05/05 06:51:12;;;;;;;2.20;0.90;;;;;;;12.71;30.86;99711.70;105377;1269;61064;-26
2022/05/05 06:53:40;;;;;;;2.60;1.40;;;;;;;12.70;29.38;99711.10;105168;1271;61181;-26
2022/05/05 06:56:08;;;;;;;1.90;0.70;;;;;;;12.53;29.87;99714.11;105366;1270;75512;-26
2022/05/05 06:58:37;;;;;;;2.90;0.70;;;;;;;12.49;28.67;99715.70;105362;1269;76083;-26
2022/05/05 07:05:23;;;;;;;2.80;0.90;;;;;;;12.93;29.27;99720.36;105399;1271;61089;-26
2022/05/05 07:06:42;;;;;;;2.90;1.00;;;;;;;12.71;29.01;99723.52;105165;1271;61036;-26
2022/05/05 07:11:57;;;;;;;2.60;1.20;;;;;;;11.53;30.46;99720.64;105103;1271;74969;-26
2022/05/05 07:14:26;;;;;;;4.50;2.30;;;;;;;11.46;30.40;99719.09;104945;1270;74386;-26
2022/05/05 07:16:55;;;;;;;2.90;1.30;;;;;;;11.87;29.74;99722.30;105088;1271;61144;-26
2022/05/05 07:19:29;;;;;;;2.30;1.20;;;;;;;12.51;29.11;99720.52;105367;1271;61144;-26
2022/05/05 07:21:57;;;;;;;2.20;1.00;;;;;;;12.29;28.89;99727.02;105377;1271;74394;-26
2022/05/05 07:24:25;;;;;;;4.70;1.50;;;;;;;12.57;29.00;99727.24;105386;1271;76016;-26
2022/05/05 07:27:26;;;;;;;2.00;1.40;;;;;;;12.73;28.53;99726.34;105162;1271;74517;-27
2022/05/05 07:29:54;;;;;;;5.20;0.80;;;;;;;12.98;29.62;99721.56;105335;1271;62364;-26
2022/05/05 07:32:23;;;;;;;2.60;1.20;;;;;;;13.06;27.89;99723.20;105062;1271;61940;-26
2022/05/05 07:34:51;;;;;;;3.90;2.00;;;;;;;13.28;27.38;99724.36;105235;1271;75312;-26
2022/05/05 07:37:21;;;;;;;7.60;4.20;;;;;;;12.20;28.46;99721.52;104974;1271;75962;-26
2022/05/05 07:39:49;;;;;;;1.60;1.10;;;;;;;12.61;28.63;99728.33;104993;1270;74367;-26
2022/05/05 07:42:17;;;;;;;2.90;1.50;;;;;;;12.82;28.29;99731.14;105005;1271;61060;-26
2022/05/05 07:44:46;;;;;;;4.60;1.80;;;;;;;11.47;28.58;99724.50;105336;1271;62491;-27
2022/05/05 07:47:14;;;;;;;7.80;3.90;;;;;;;10.75;29.88;99727.37;105351;1270;74480;-27
2022/05/05 07:49:43;;;;;;;2.00;1.40;;;;;;;11.77;29.37;99730.52;105096;1271;75970;-27
2022/05/05 07:52:11;;;;;;;2.10;1.20;;;;;;;12.65;28.42;99730.27;105177;1271;73549;-26
2022/05/05 07:54:44;;;;;;;2.50;0.80;;;;;;;13.28;27.69;99732.20;105270;1271;61999;-26
2022/05/05 07:57:13;;;;;;;2.60;0.90;;;;;;;13.78;27.93;99722.23;104987;1271;61161;-26
2022/05/05 07:59:44;;;;;;;2.90;1.50;;;;;;;13.63;27.51;99722.77;105143;1271;76486;-26
2022/05/05 08:02:19;;;;;;;7.20;3.60;;;;;;;12.16;27.85;99717.66;105127;1271;76099;-26
2022/05/05 08:04:48;;;;;;;2.60;1.00;;;;;;;12.83;28.70;99722.94;105343;1271;72214;-26
2022/05/05 08:07:17;;;;;;;2.20;1.00;;;;;;;13.36;28.36;99728.46;104957;1271;61146;-26
2022/05/05 08:09:45;;;;;;;6.90;2.20;;;;;;;14.01;27.03;99722.88;105036;1271;61072;-28
2022/05/05 08:12:30;;;;;;;2.70;1.30;;;;;;;13.70;26.70;99725.29;105210;1270;77314;-27
2022/05/05 08:15:01;;;;;;;1.50;0.90;;;;;;;14.26;27.28;99719.20;105272;1270;75902;-27
2022/05/05 08:17:30;;;;;;;2.10;1.00;;;;;;;14.68;28.02;99719.10;105366;1271;74450;-26
2022/05/05 08:19:58;;;;;;;2.50;1.10;;;;;;;15.12;27.06;99722.79;105137;1271;61972;-26
2022/05/05 08:22:29;;;;;;;1.30;0.80;;;;;;;15.40;26.82;99719.91;105137;1271;62625;-26
2022/05/05 08:30:43;;;;;;;7.80;1.40;;;;;;;15.32;25.22;99710.11;105172;1271;74353;-27
2022/05/05 08:33:12;;;;;;;4.70;1.20;;;;;;;15.17;25.20;99707.41;105189;1271;61180;-27
2022/05/05 08:35:42;;;;;;;2.60;0.90;;;;;;;15.61;24.82;99710.67;105228;1271;61096;-26
2022/05/05 08:38:11;;;;;;;7.50;1.20;;;;;;;15.74;24.81;99710.54;105159;1271;74911;-26
2022/05/05 08:40:39;;;;;;;2.80;1.50;;;;;;;15.69;24.78;99711.79;105378;1271;76197;-27
2022/05/05 08:43:08;;;;;;;2.30;1.20;;;;;;;13.45;25.18;99706.45;105179;1271;74670;-27
2022/05/05 08:45:46;;;;;;;5.30;4.60;;;;;;;14.24;24.12;99705.20;105131;1271;62624;-27
2022/05/05 08:48:32;;;;;;;6.00;1.10;;;;;;;15.23;23.96;99709.15;105171;1271;61897;-27
2022/05/05 08:51:01;;;;;;;2.20;1.10;;;;;;;15.43;22.55;99709.98;105188;1271;75477;-27
2022/05/05 08:53:35;;;;;;;4.30;0.90;;;;;;;15.61;22.99;99709.10;105219;1271;76293;-27
2022/05/05 08:56:04;;;;;;;3.50;0.90;;;;;;;15.87;22.75;99703.69;105099;1271;74134;-27
2022/05/05 08:58:34;;;;;;;2.20;1.10;;;;;;;15.70;23.02;99704.96;104991;1271;62124;-26
2022/05/05 09:01:02;;;;;;;5.00;1.70;;;;;;;15.53;23.05;99709.64;105150;1270;61734;-26
2022/05/05 09:03:33;;;;;;;5.10;1.50;;;;;;;15.59;22.16;99706.28;105245;1271;74301;-27
2022/05/05 09:06:01;;;;;;;3.30;1.90;;;;;;;15.67;22.19;99702.38;105383;1271;76154;-27
2022/05/05 09:08:32;;;;;;;7.20;3.50;;;;;;;15.96;22.94;99698.48;105357;1271;73823;-26
2022/05/05 09:11:08;;;;;;;3.00;1.10;;;;;;;15.53;22.17;99703.95;105043;1271;62390;-26
2022/05/05 09:13:42;;;;;;;2.60;1.40;;;;;;;15.10;23.00;99696.18;104984;1271;61921;-26
2022/05/05 09:16:11;;;;;;;2.30;1.00;;;;;;;15.96;22.24;99698.70;105100;1271;73709;-26
2022/05/05 09:18:40;;;;;;;1.80;1.00;;;;;;;16.16;21.91;99704.88;105174;1271;75968;-26
2022/05/05 09:21:09;;;;;;;1.90;1.00;;;;;;;16.69;22.01;99703.55;105378;1270;72407;-26
2022/05/05 09:26:30;;;;;;;3.30;1.20;;;;;;;17.25;21.93;99698.19;105029;1271;61089;-26
2022/05/05 09:28:59;;;;;;;2.60;1.20;;;;;;;17.12;21.17;99695.21;104758;1271;394140;-27
2022/05/05 09:31:27;;;;;;;2.60;1.00;;;;;;;17.22;21.73;99697.95;105114;1271;76056;-26
2022/05/05 09:33:56;;;;;;;2.10;0.90;;;;;;;17.40;22.13;99693.96;104870;1271;73745;-26
2022/05/05 09:36:26;;;;;;;11.50;7.60;;;;;;;16.86;21.31;99695.52;104825;1271;61278;-26
2022/05/05 09:38:56;;;;;;;2.60;1.40;;;;;;;16.19;21.88;99694.77;104847;1271;61108;-26
2022/05/05 09:41:29;;;;;;;2.40;1.30;;;;;;;17.16;21.29;99692.69;105067;1272;75652;-26
2022/05/05 09:44:14;;;;;;;1.90;0.90;;;;;;;17.62;21.03;99688.35;105000;1270;75996;-26
2022/05/05 09:46:45;;;;;;;1.70;1.00;;;;;;;18.13;21.05;99689.55;105085;1270;74240;-26
2022/05/05 09:49:18;;;;;;;1.20;0.70;;;;;;;18.46;21.13;99685.25;105167;1271;61370;-26
2022/05/05 09:57:45;;;;;;;2.20;0.80;;;;;;;18.15;20.90;99681.39;104900;1271;75776;-26
2022/05/05 10:05:53;;;;;;;1.60;0.90;;;;;;;17.82;20.15;99674.06;105129;1271;62068;-26
2022/05/05 10:08:48;;;;;;;2.40;0.70;;;;;;;17.41;20.97;99676.73;104877;1271;75566;-26
2022/05/05 10:11:18;;;;;;;2.40;0.80;;;;;;;17.81;20.78;99672.89;105009;1271;76077;-27
2022/05/05 10:13:47;;;;;;;2.50;0.70;;;;;;;18.28;20.89;99677.58;104890;1271;74534;-26
2022/05/05 10:16:15;;;;;;;2.80;1.40;;;;;;;18.24;19.03;99676.29;105029;1269;61056;-26
2022/05/05 10:18:44;;;;;;;2.90;1.30;;;;;;;17.90;19.40;99676.05;105138;1271;62299;-26
2022/05/05 10:21:52;;;;;;;4.10;1.00;;;;;;;18.72;18.84;99671.81;105020;1271;75552;-26
2022/05/05 10:24:28;;;;;;;1.40;0.90;;;;;;;18.70;18.26;99674.70;105132;1271;76611;-27
2022/05/05 10:26:58;;;;;;;1.40;0.90;;;;;;;18.88;19.42;99679.09;105007;1271;74483;-25
2022/05/05 10:29:42;;;;;;;2.00;1.00;;;;;;;19.07;19.38;99677.10;105029;1271;61143;-26
2022/05/05 10:32:18;;;;;;;1.00;0.70;;;;;;;19.30;19.57;99675.31;105130;1271;61352;-25
2022/05/05 10:34:56;;;;;;;1.90;0.80;;;;;;;19.44;19.98;99675.45;105122;1271;75607;-25
2022/05/05 10:37:32;;;;;;;2.20;0.80;;;;;;;19.67;19.50;99676.10;105101;1272;75226;-26
2022/05/05 10:40:07;;;;;;;3.90;0.90;;;;;;;19.81;18.43;99673.04;104826;1272;73414;-26
2022/05/05 10:42:41;;;;;;;1.90;0.90;;;;;;;20.28;18.77;99669.27;104928;1271;61134;-26
2022/05/05 10:45:10;;;;;;;;;;;;;;;20.42;17.88;99669.09;105226;1271;61041;-26
2022/05/05 10:48:01;;;;;;;4.50;1.00;;;;;;;20.42;18.47;99668.09;105337;1271;75760;-26
2022/05/05 10:50:42;;;;;;;3.50;1.00;;;;;;;20.13;17.82;99664.04;105185;1271;75756;-26
2022/05/05 10:55:21;;;;;;;2.10;1.20;;;;;;;19.44;17.99;99661.89;101828;1309;601574;-25
2022/05/05 10:58:01;;;;;;;1.70;1.00;;;;;;;19.52;18.67;99662.40;104892;1275;61142;-26
2022/05/05 11:00:42;;;;;;;1.90;1.10;;;;;;;19.74;17.22;99660.50;104737;1277;61106;-26
2022/05/05 11:03:10;;;;;;;2.50;0.90;;;;;;;19.90;16.94;99655.98;104657;1275;73805;-26
2022/05/05 11:05:39;;;;;;;1.00;0.80;;;;;;;20.02;17.76;99659.84;104896;1274;76178;-27
2022/05/05 11:08:14;;;;;;;1.40;1.10;;;;;;;19.86;19.57;99656.44;104663;1274;336349;-27
2022/05/05 11:13:43;;;;;;;;;;;;;;;19.87;19.03;99650.92;104805;1274;61166;-27
2022/05/05 11:22:18;;;;;;;2.20;0.90;;;;;;;19.77;18.49;99652.70;104657;1274;75806;-27
2022/05/05 11:24:48;;;;;;;2.20;1.00;;;;;;;19.02;19.03;99648.22;104637;1274;61152;-27
2022/05/05 11:27:18;;;;;;;1.70;1.10;;;;;;;18.80;18.64;99652.89;104662;1274;62329;-26
2022/05/05 11:29:51;;;;;;;2.80;1.00;;;;;;;19.03;18.85;99654.84;104683;1274;74809;-26
2022/05/05 11:32:21;;;;;;;1.20;0.90;;;;;;;19.14;18.77;99653.88;104698;1274;76239;-26
2022/05/05 11:34:52;;;;;;;1.50;1.10;;;;;;;19.18;20.28;99649.33;104643;1275;74446;-26
2022/05/05 11:37:20;;;;;;;2.90;1.20;;;;;;;19.35;20.08;99649.90;105021;1274;62252;-26
2022/05/05 11:39:49;;;;;;;2.00;1.30;;;;;;;19.43;19.31;99650.02;104901;1274;61153;-26
2022/05/05 11:42:17;;;;;;;5.00;1.40;;;;;;;19.35;18.56;99645.08;104884;1274;74815;-27
2022/05/05 11:44:46;;;;;;;2.80;0.80;;;;;;;18.48;18.81;99639.64;104918;1271;76099;-26
2022/05/05 11:47:19;;;;;;;3.10;1.00;;;;;;;18.65;18.60;99641.98;104968;1271;74447;-26
2022/05/05 11:49:48;;;;;;;4.90;1.20;;;;;;;18.46;20.06;99634.79;105014;1270;61815;-26
2022/05/05 11:52:21;;;;;;;2.20;1.20;;;;;;;18.68;21.78;99639.13;104997;1271;62137;-26
2022/05/05 11:54:53;;;;;;;4.50;1.20;;;;;;;18.14;19.74;99636.69;104884;1271;74932;-26
2022/05/05 11:57:34;;;;;;;1.90;1.10;;;;;;;18.01;21.60;99639.23;104937;1271;75984;-26
2022/05/05 12:02:51;;;;;;;1.70;0.80;;;;;;;17.43;21.23;99628.59;104645;1273;62114;-26
2022/05/05 12:05:21;;;;;;;1.00;0.70;;;;;;;16.75;21.14;99631.66;104815;1271;61758;-27
2022/05/05 12:07:51;;;;;;;2.80;0.80;;;;;;;16.67;22.91;99632.36;104788;1271;75133;-26
2022/05/05 12:10:19;;;;;;;1.50;0.80;;;;;;;16.89;23.65;99629.68;104948;1271;76015;-26
2022/05/05 12:12:49;;;;;;;1.70;0.90;;;;;;;16.52;21.96;99628.92;105140;1271;74274;-26
2022/05/05 12:15:20;;;;;;;1.10;0.90;;;;;;;16.63;22.29;99625.62;104896;1271;61134;-25
2022/05/05 12:17:57;;;;;;;3.50;1.10;;;;;;;16.90;22.50;99621.90;105096;1271;61903;-26
2022/05/05 12:20:28;;;;;;;1.90;1.00;;;;;;;17.05;22.77;99624.11;105005;1271;73531;-26
2022/05/05 12:22:58;;;;;;;4.00;1.10;;;;;;;16.98;20.95;99627.14;105134;1271;76024;-26
2022/05/05 12:25:27;;;;;;;1.60;1.00;;;;;;;17.09;21.15;99624.67;105054;1271;74255;-26
2022/05/05 12:27:55;;;;;;;1.60;1.10;;;;;;;17.30;20.58;99624.98;104962;1271;62060;-26
2022/05/05 12:30:42;;;;;;;2.20;1.00;;;;;;;17.44;19.86;99616.77;104885;1271;61172;-26
2022/05/05 12:33:35;;;;;;;2.80;0.90;;;;;;;17.67;22.00;99611.88;105094;1271;74680;-25
2022/05/05 12:36:11;;;;;;;1.00;0.80;;;;;;;17.90;20.72;99610.83;104903;1271;75026;-26